Time;durP1;ratioP1;P1;durP2;ratioP2;P2;SDS_P1;SDS_P2;PMS_P1;PMS_P2;Temp;Humidity;BMP_temperature;BMP_pressure;BME280_temperature;BME280_humidity;BME280_pressure;Samples;Min_cycle;Max_cycle;Signal;HPM_P1;HPM_P2
2023/09/30 00:00:22;;;;;;;2.10;1.05;;;19.20;99.90;;;;;;5089228;28;20025;-81
2023/09/30 00:02:48;;;;;;;2.72;1.00;;;19.20;99.90;;;;;;5089943;28;20035;-81
2023/09/30 00:05:14;;;;;;;1.65;1.00;;;19.30;99.90;;;;;;5088886;28;20108;-81
2023/09/30 00:07:40;;;;;;;1.88;1.08;;;19.20;99.90;;;;;;5090492;28;20088;-82
2023/09/30 00:10:06;;;;;;;2.50;0.98;;;19.20;99.90;;;;;;5106323;28;20044;-81
2023/09/30 00:12:32;;;;;;;3.13;1.25;;;19.20;99.90;;;;;;5090762;28;20046;-82
2023/09/30 00:14:58;;;;;;;3.08;0.95;;;19.20;99.90;;;;;;5106427;28;20044;-82
2023/09/30 00:17:23;;;;;;;3.63;0.80;;;19.20;99.90;;;;;;5089789;28;20039;-83
2023/09/30 00:19:49;;;;;;;2.05;0.93;;;19.20;99.90;;;;;;5089347;28;20043;-81
2023/09/30 00:22:15;;;;;;;2.63;1.00;;;19.20;99.90;;;;;;5106722;28;20025;-82
2023/09/30 00:24:40;;;;;;;2.35;0.93;;;19.20;99.90;;;;;;5090571;28;20080;-82
2023/09/30 00:27:06;;;;;;;3.10;1.00;;;19.20;99.90;;;;;;5089831;28;20139;-82
2023/09/30 00:29:31;;;;;;;2.85;1.33;;;19.20;99.90;;;;;;5089433;28;20031;-82
2023/09/30 00:31:57;;;;;;;2.97;1.13;;;19.20;99.90;;;;;;5089738;28;20028;-81
2023/09/30 00:34:23;;;;;;;2.33;1.20;;;19.20;99.90;;;;;;5089238;28;20045;-82
2023/09/30 00:36:48;;;;;;;3.50;1.20;;;19.10;99.90;;;;;;5089532;28;20096;-81
2023/09/30 00:39:14;;;;;;;2.63;1.30;;;19.10;99.90;;;;;;5092338;28;20028;-81
2023/09/30 00:41:40;;;;;;;2.13;0.98;;;19.10;99.90;;;;;;5092749;28;20035;-80
2023/09/30 00:44:06;;;;;;;2.28;1.00;;;19.10;99.90;;;;;;5094105;28;20024;-80
2023/09/30 00:46:32;;;;;;;3.53;1.55;;;19.00;99.90;;;;;;5092968;28;20033;-80
2023/09/30 00:48:59;;;;;;;4.00;1.17;;;19.00;99.90;;;;;;5093100;28;20035;-81
2023/09/30 00:51:26;;;;;;;4.05;1.20;;;19.00;99.90;;;;;;5093036;28;20029;-82
2023/09/30 00:53:53;;;;;;;1.92;1.10;;;19.00;99.90;;;;;;5093922;28;20119;-82
2023/09/30 00:56:21;;;;;;;2.15;1.10;;;19.00;99.90;;;;;;5092916;28;20040;-82
2023/09/30 00:58:51;;;;;;;2.58;1.10;;;18.90;99.90;;;;;;5092804;28;20052;-81
2023/09/30 01:01:16;;;;;;;3.20;1.08;;;18.90;99.90;;;;;;5092789;28;20029;-82
2023/09/30 01:03:42;;;;;;;2.50;1.08;;;18.90;99.90;;;;;;5092935;28;20031;-81
2023/09/30 01:06:08;;;;;;;4.35;0.95;;;18.70;99.90;;;;;;5093376;28;20029;-82
2023/09/30 01:08:34;;;;;;;2.92;1.30;;;18.70;99.90;;;;;;5092800;28;20029;-82
2023/09/30 01:11:00;;;;;;;1.95;1.20;;;18.70;99.90;;;;;;5093318;28;20036;-81
2023/09/30 01:13:34;;;;;;;2.45;1.20;;;18.80;99.90;;;;;;5092369;28;20032;-81
2023/09/30 01:16:06;;;;;;;3.03;1.20;;;18.80;99.90;;;;;;5092351;28;20057;-81
2023/09/30 01:18:31;;;;;;;;;;;18.80;99.90;;;;;;5094153;28;20032;-82
2023/09/30 01:21:01;;;;;;;2.05;1.08;;;18.80;99.90;;;;;;5092293;28;19904;-81
2023/09/30 01:23:28;;;;;;;1.92;1.10;;;18.80;99.90;;;;;;5092244;28;20036;-83
2023/09/30 01:25:53;;;;;;;2.50;1.42;;;18.80;99.90;;;;;;5082281;28;20024;-82
2023/09/30 01:28:19;;;;;;;3.38;1.20;;;18.80;99.90;;;;;;5075066;28;20031;-80
2023/09/30 01:30:45;;;;;;;4.60;1.58;;;18.70;99.90;;;;;;5074486;28;20029;-81
2023/09/30 01:33:10;;;;;;;5.63;1.30;;;18.70;99.90;;;;;;5074711;28;20473;-80
2023/09/30 01:35:36;;;;;;;2.22;1.20;;;18.70;99.90;;;;;;5074131;28;20028;-81
2023/09/30 01:38:02;;;;;;;2.00;1.00;;;18.60;99.90;;;;;;5074659;28;20040;-81
2023/09/30 01:40:27;;;;;;;3.90;1.30;;;18.70;99.90;;;;;;5074504;28;20029;-81
2023/09/30 01:42:53;;;;;;;2.35;1.15;;;18.70;99.90;;;;;;5074810;28;20093;-81
2023/09/30 01:45:18;;;;;;;2.70;1.20;;;18.60;99.90;;;;;;5075773;28;20031;-80
2023/09/30 01:47:44;;;;;;;5.20;2.53;;;18.70;99.90;;;;;;5074091;28;20029;-80
2023/09/30 01:50:10;;;;;;;6.22;2.17;;;18.60;99.90;;;;;;5073811;28;20025;-83
2023/09/30 01:52:36;;;;;;;5.72;1.42;;;18.70;99.90;;;;;;5074425;28;20070;-83
2023/09/30 01:55:01;;;;;;;4.25;1.45;;;18.70;99.90;;;;;;5074650;28;20028;-83
2023/09/30 01:57:27;;;;;;;1.92;0.90;;;18.70;99.90;;;;;;5075588;28;20461;-84
2023/09/30 01:59:52;;;;;;;3.63;1.20;;;18.70;99.90;;;;;;5074651;28;20027;-84
2023/09/30 02:02:18;;;;;;;2.53;1.40;;;18.70;99.90;;;;;;5074743;28;20155;-83
2023/09/30 02:04:44;;;;;;;4.78;1.48;;;18.70;99.90;;;;;;5090952;28;20220;-83
2023/09/30 02:07:09;;;;;;;2.45;1.13;;;18.70;99.90;;;;;;5077584;28;20032;-82
2023/09/30 02:09:36;;;;;;;4.55;1.60;;;18.70;99.90;;;;;;5075890;28;20048;-83
2023/09/30 02:12:02;;;;;;;2.13;1.10;;;18.70;99.90;;;;;;5074933;28;20480;-84
2023/09/30 02:14:27;;;;;;;2.28;1.23;;;18.70;99.90;;;;;;5074183;28;20097;-84
2023/09/30 02:16:53;;;;;;;2.20;1.17;;;18.70;99.90;;;;;;5075978;28;20029;-84
2023/09/30 02:19:19;;;;;;;2.42;1.20;;;18.60;99.90;;;;;;5074506;28;20025;-84
2023/09/30 02:21:45;;;;;;;4.43;1.38;;;18.60;99.90;;;;;;5074076;28;20168;-84
2023/09/30 02:24:11;;;;;;;2.92;1.20;;;18.60;99.90;;;;;;5074302;28;20036;-84
2023/09/30 02:26:38;;;;;;;3.17;1.38;;;18.60;99.90;;;;;;5074795;28;20031;-84
2023/09/30 02:29:07;;;;;;;2.83;1.30;;;18.60;99.90;;;;;;5074344;28;20024;-84
2023/09/30 02:31:33;;;;;;;2.17;1.00;;;18.60;99.90;;;;;;5074588;28;20051;-84
2023/09/30 02:33:59;;;;;;;2.75;1.20;;;18.60;99.90;;;;;;5089881;28;20040;-83
2023/09/30 02:36:24;;;;;;;2.88;1.30;;;18.50;99.90;;;;;;5084496;28;20480;-82
2023/09/30 02:38:50;;;;;;;3.55;1.35;;;18.60;99.90;;;;;;5075065;28;20036;-81
2023/09/30 02:41:17;;;;;;;3.60;1.30;;;18.50;99.90;;;;;;5074818;28;20024;-82
2023/09/30 02:43:42;;;;;;;3.88;1.42;;;18.40;99.90;;;;;;5073028;28;20048;-82
2023/09/30 02:46:08;;;;;;;3.33;1.27;;;18.30;99.90;;;;;;5073874;28;20021;-81
2023/09/30 02:48:34;;;;;;;4.18;1.50;;;18.30;99.90;;;;;;5073291;28;20070;-82
2023/09/30 02:50:59;;;;;;;3.55;1.48;;;18.40;99.90;;;;;;5073435;28;20422;-82
2023/09/30 02:53:25;;;;;;;3.05;1.65;;;18.40;99.90;;;;;;5073533;28;20112;-81
2023/09/30 02:55:55;;;;;;;2.60;1.35;;;18.30;99.90;;;;;;5074130;28;20032;-82
2023/09/30 02:58:22;;;;;;;3.60;1.48;;;18.30;99.90;;;;;;5073484;28;20033;-81
2023/09/30 03:00:50;;;;;;;4.53;1.48;;;18.30;99.90;;;;;;5074028;28;20380;-82
2023/09/30 03:03:16;;;;;;;5.28;1.33;;;18.30;99.90;;;;;;5074177;28;20520;-83
2023/09/30 03:05:41;;;;;;;4.40;1.23;;;18.30;99.90;;;;;;5073549;28;20032;-82
2023/09/30 03:08:07;;;;;;;3.65;1.38;;;18.30;99.90;;;;;;5074298;28;20044;-81
2023/09/30 03:10:33;;;;;;;3.58;1.52;;;18.30;99.90;;;;;;5072936;28;20111;-82
2023/09/30 03:13:01;;;;;;;2.80;1.40;;;18.30;99.90;;;;;;5073380;28;20027;-82
2023/09/30 03:15:28;;;;;;;5.72;1.77;;;18.30;99.90;;;;;;5073198;28;20527;-82
2023/09/30 03:17:55;;;;;;;3.95;1.50;;;18.30;99.90;;;;;;5074184;28;20024;-82
2023/09/30 03:20:21;;;;;;;4.65;1.30;;;18.30;99.90;;;;;;5074254;28;20523;-82
2023/09/30 03:22:47;;;;;;;3.38;1.30;;;18.30;99.90;;;;;;5073670;28;20099;-81
2023/09/30 03:25:17;;;;;;;2.50;1.35;;;18.30;99.90;;;;;;5074103;28;20029;-80
2023/09/30 03:27:43;;;;;;;2.70;1.20;;;18.40;99.90;;;;;;5073726;28;20025;-81
2023/09/30 03:30:12;;;;;;;2.28;1.10;;;18.40;99.90;;;;;;5074210;28;20079;-80
2023/09/30 03:32:38;;;;;;;2.33;1.27;;;18.40;99.90;;;;;;5073492;28;20044;-81
2023/09/30 03:35:10;;;;;;;3.25;1.23;;;18.40;99.90;;;;;;5073936;28;20032;-81
2023/09/30 03:37:36;;;;;;;3.30;1.35;;;18.30;99.90;;;;;;5072198;28;20097;-81
2023/09/30 03:40:13;;;;;;;2.42;1.50;;;18.30;99.90;;;;;;5073448;28;20358;-80
2023/09/30 03:42:43;;;;;;;2.75;1.40;;;18.30;99.90;;;;;;5072668;28;20028;-82
2023/09/30 03:45:10;;;;;;;2.92;1.67;;;18.30;99.90;;;;;;5073167;28;20051;-82
2023/09/30 03:47:37;;;;;;;3.28;1.50;;;18.30;99.90;;;;;;5072418;28;20094;-83
2023/09/30 03:50:04;;;;;;;4.10;1.45;;;18.30;99.90;;;;;;5073019;28;20032;-82
2023/09/30 03:52:32;;;;;;;3.53;1.45;;;18.30;99.90;;;;;;5072962;28;20036;-81
2023/09/30 03:55:05;;;;;;;3.10;1.75;;;18.30;99.90;;;;;;5072587;28;20035;-82
2023/09/30 03:57:34;;;;;;;5.35;1.90;;;18.30;99.90;;;;;;5073062;28;20083;-82
2023/09/30 04:00:00;;;;;;;3.67;1.38;;;18.20;99.90;;;;;;5073888;28;20086;-81
2023/09/30 04:02:27;;;;;;;3.03;1.80;;;18.20;99.90;;;;;;5072328;28;20025;-82
2023/09/30 04:04:55;;;;;;;4.10;1.83;;;18.10;99.90;;;;;;5072244;28;20040;-84
2023/09/30 04:07:21;;;;;;;3.35;2.08;;;18.10;99.90;;;;;;5073052;28;20098;-85
2023/09/30 04:09:47;;;;;;;4.47;1.77;;;18.10;99.90;;;;;;5073587;28;20025;-84
2023/09/30 04:12:12;;;;;;;4.00;1.85;;;18.10;99.90;;;;;;5073040;28;20036;-85
2023/09/30 04:14:39;;;;;;;5.95;1.80;;;18.10;99.90;;;;;;5074934;28;20021;-84
2023/09/30 04:17:04;;;;;;;5.22;2.03;;;18.10;99.90;;;;;;5076948;28;20129;-85
2023/09/30 04:19:30;;;;;;;4.75;1.83;;;18.10;99.90;;;;;;5079304;28;20040;-85
2023/09/30 04:21:56;;;;;;;4.60;2.05;;;18.00;99.90;;;;;;5077471;28;20029;-85
2023/09/30 04:24:22;;;;;;;3.92;1.88;;;18.00;99.90;;;;;;5077892;28;20024;-84
2023/09/30 04:26:50;;;;;;;3.20;1.85;;;18.00;99.90;;;;;;5077941;28;20453;-84
2023/09/30 04:29:16;;;;;;;3.60;1.88;;;18.00;99.90;;;;;;5077170;28;20028;-85
2023/09/30 04:31:41;;;;;;;5.07;2.38;;;17.90;99.90;;;;;;5076275;28;20027;-85
2023/09/30 04:34:07;;;;;;;3.65;1.80;;;18.00;99.90;;;;;;5076040;28;20044;-85
2023/09/30 04:36:35;;;;;;;4.20;1.70;;;18.00;99.90;;;;;;5076624;28;20059;-85
2023/09/30 04:39:02;;;;;;;5.32;1.98;;;17.90;99.90;;;;;;5077069;28;20028;-82
2023/09/30 04:41:28;;;;;;;6.03;2.00;;;18.00;99.90;;;;;;5092819;28;20028;-82
2023/09/30 04:43:54;;;;;;;4.00;1.92;;;18.00;99.90;;;;;;5075669;28;20028;-82
2023/09/30 04:46:23;;;;;;;3.08;1.77;;;17.90;99.90;;;;;;5076712;28;20028;-82
2023/09/30 04:48:51;;;;;;;4.82;1.95;;;17.90;99.90;;;;;;5075367;28;20033;-81
2023/09/30 04:51:18;;;;;;;6.70;1.95;;;17.90;99.90;;;;;;5075956;28;20480;-82
2023/09/30 04:53:46;;;;;;;6.57;2.28;;;17.90;99.90;;;;;;5075612;28;20029;-83
2023/09/30 04:56:12;;;;;;;3.47;1.80;;;17.80;99.90;;;;;;5075999;28;20028;-83
2023/09/30 04:58:38;;;;;;;3.00;2.00;;;17.80;99.90;;;;;;5075908;28;20037;-83
2023/09/30 05:01:03;;;;;;;5.20;2.50;;;17.70;99.90;;;;;;5076516;28;20635;-83
2023/09/30 05:03:29;;;;;;;5.45;1.73;;;17.70;99.90;;;;;;5075908;28;20032;-83
2023/09/30 05:05:55;;;;;;;4.78;2.03;;;17.60;99.90;;;;;;5076502;28;20043;-83
2023/09/30 05:08:22;;;;;;;4.82;2.40;;;17.60;99.90;;;;;;5075823;28;20040;-82
2023/09/30 05:10:48;;;;;;;4.57;1.95;;;17.60;99.90;;;;;;5076285;28;20469;-82
2023/09/30 05:13:13;;;;;;;3.72;2.00;;;17.50;99.90;;;;;;5076747;28;20028;-82
2023/09/30 05:15:41;;;;;;;5.22;2.13;;;17.50;99.90;;;;;;5075938;28;20036;-82
2023/09/30 05:18:09;;;;;;;4.88;2.38;;;17.40;99.90;;;;;;5075735;28;20036;-82
2023/09/30 05:20:37;;;;;;;3.83;2.22;;;17.20;99.90;;;;;;5075361;28;20032;-81
2023/09/30 05:23:03;;;;;;;5.75;2.35;;;17.10;99.90;;;;;;5075243;28;20119;-82
2023/09/30 05:25:29;;;;;;;4.35;2.38;;;17.10;99.90;;;;;;5076367;28;20495;-82
2023/09/30 05:27:54;;;;;;;5.20;2.00;;;17.00;99.90;;;;;;5075276;28;20025;-83
2023/09/30 05:30:20;;;;;;;6.88;2.42;;;16.90;99.90;;;;;;5075577;28;20033;-84
2023/09/30 05:32:46;;;;;;;5.85;2.10;;;16.90;99.90;;;;;;5075006;28;20049;-83
2023/09/30 05:35:12;;;;;;;3.78;2.05;;;16.90;99.90;;;;;;5076619;28;20029;-82
2023/09/30 05:37:42;;;;;;;6.72;2.40;;;16.90;99.90;;;;;;5074676;28;20037;-84
2023/09/30 05:40:16;;;;;;;6.82;2.60;;;16.90;99.90;;;;;;5081826;28;20028;-83
2023/09/30 05:42:44;;;;;;;5.88;1.80;;;16.80;99.90;;;;;;5095114;28;20024;-83
2023/09/30 05:45:12;;;;;;;5.07;2.40;;;16.70;99.90;;;;;;5095547;28;20032;-83
2023/09/30 05:47:38;;;;;;;6.72;2.33;;;16.70;99.90;;;;;;5094963;28;20028;-84
2023/09/30 05:50:07;;;;;;;6.07;2.30;;;16.60;99.90;;;;;;5106315;28;20024;-80
2023/09/30 05:52:33;;;;;;;6.22;2.47;;;16.60;99.90;;;;;;5105812;28;20028;-81
2023/09/30 05:55:00;;;;;;;5.55;2.28;;;16.50;99.90;;;;;;5095087;28;20035;-83
2023/09/30 05:57:27;;;;;;;5.90;2.60;;;16.50;99.90;;;;;;5096062;28;20131;-81
2023/09/30 05:59:52;;;;;;;4.03;1.98;;;16.60;99.90;;;;;;5094499;28;20114;-83
2023/09/30 06:02:19;;;;;;;5.07;2.20;;;16.60;99.90;;;;;;5095869;28;20535;-83
2023/09/30 06:04:46;;;;;;;5.90;2.38;;;16.70;99.90;;;;;;5094105;28;20115;-83
2023/09/30 06:07:12;;;;;;;3.80;2.60;;;16.70;99.90;;;;;;5094273;28;20476;-81
2023/09/30 06:09:37;;;;;;;4.50;2.55;;;16.60;99.90;;;;;;5095920;28;20028;-83
2023/09/30 06:12:06;;;;;;;4.03;1.92;;;16.70;99.90;;;;;;5094214;28;20028;-84
2023/09/30 06:14:32;;;;;;;4.72;2.38;;;16.70;99.90;;;;;;5094620;28;20077;-84
2023/09/30 06:16:57;;;;;;;5.93;2.35;;;16.70;99.90;;;;;;5094218;28;20107;-84
2023/09/30 06:19:25;;;;;;;6.30;2.40;;;16.80;99.90;;;;;;5094290;28;20115;-84
2023/09/30 06:21:51;;;;;;;4.68;2.33;;;16.80;99.90;;;;;;5093854;28;20170;-83
2023/09/30 06:24:19;;;;;;;5.93;2.30;;;16.90;99.90;;;;;;5094339;28;20062;-84
2023/09/30 06:26:45;;;;;;;6.80;2.70;;;16.90;99.90;;;;;;5094060;28;20024;-83
2023/09/30 06:29:11;;;;;;;4.57;2.22;;;17.00;99.90;;;;;;5095312;28;20059;-83
2023/09/30 06:31:37;;;;;;;10.55;2.58;;;17.10;99.90;;;;;;5081867;28;20025;-81
2023/09/30 06:34:04;;;;;;;6.38;2.85;;;17.10;99.90;;;;;;5073258;28;20443;-81
2023/09/30 06:36:29;;;;;;;6.35;2.80;;;17.10;99.90;;;;;;5073248;28;20034;-82
2023/09/30 06:38:55;;;;;;;7.03;2.60;;;17.10;99.90;;;;;;5073109;28;20032;-80
2023/09/30 06:41:20;;;;;;;7.72;2.85;;;17.10;99.90;;;;;;5063762;28;20079;-84
2023/09/30 06:43:46;;;;;;;4.47;2.40;;;17.10;99.90;;;;;;5053128;28;20108;-80
2023/09/30 06:46:13;;;;;;;19.65;3.22;;;17.10;99.90;;;;;;5053402;28;20154;-84
2023/09/30 06:48:42;;;;;;;19.13;3.60;;;17.10;99.90;;;;;;5075889;28;20457;-87
2023/09/30 06:51:07;;;;;;;9.98;2.78;;;17.10;99.90;;;;;;5076203;28;20115;-80
2023/09/30 06:53:33;;;;;;;15.00;2.95;;;17.10;99.90;;;;;;5075060;28;20060;-82
2023/09/30 06:55:58;;;;;;;18.73;3.40;;;17.10;99.90;;;;;;5081713;28;20027;-83
2023/09/30 06:58:24;;;;;;;13.00;3.50;;;17.10;99.90;;;;;;5069943;28;20029;-84
2023/09/30 07:00:51;;;;;;;18.50;3.67;;;17.10;99.90;;;;;;5062654;28;20025;-82
2023/09/30 07:03:19;;;;;;;39.92;4.63;;;17.10;99.90;;;;;;5070508;28;20020;-82
2023/09/30 07:05:49;;;;;;;21.15;4.15;;;17.10;99.90;;;;;;5075005;28;20029;-83
2023/09/30 07:08:16;;;;;;;20.98;4.10;;;17.10;99.90;;;;;;5072529;28;20033;-83
2023/09/30 07:10:42;;;;;;;19.88;4.50;;;17.10;99.90;;;;;;5078052;28;20021;-83
2023/09/30 07:13:08;;;;;;;14.13;3.40;;;17.10;99.90;;;;;;5074000;28;20359;-83
2023/09/30 07:15:33;;;;;;;13.18;3.78;;;17.10;99.90;;;;;;5079324;28;20024;-82
2023/09/30 07:17:59;;;;;;;7.70;3.30;;;17.10;99.90;;;;;;5073542;28;20025;-83
2023/09/30 07:20:26;;;;;;;13.73;3.85;;;17.10;99.90;;;;;;5072791;28;20469;-83
2023/09/30 07:22:52;;;;;;;14.27;3.63;;;17.10;99.90;;;;;;5072623;28;20024;-84
2023/09/30 07:25:18;;;;;;;19.17;3.60;;;17.10;99.90;;;;;;5072926;28;20111;-83
2023/09/30 07:27:44;;;;;;;11.00;3.60;;;17.20;99.90;;;;;;5072820;28;20044;-84
2023/09/30 07:30:12;;;;;;;9.48;3.40;;;17.20;99.90;;;;;;5074262;28;20036;-82
2023/09/30 07:32:38;;;;;;;16.15;3.85;;;17.30;99.90;;;;;;5075369;28;20533;-83
2023/09/30 07:35:04;;;;;;;15.18;4.20;;;17.30;99.90;;;;;;5073825;28;20262;-84
2023/09/30 07:37:29;;;;;;;12.95;3.60;;;17.30;99.90;;;;;;5072941;28;20390;-85
2023/09/30 07:39:55;;;;;;;11.65;3.45;;;17.30;99.90;;;;;;5073543;28;20029;-83
2023/09/30 07:42:22;;;;;;;8.32;3.65;;;17.30;99.90;;;;;;5072781;28;20020;-82
2023/09/30 07:44:48;;;;;;;11.25;3.65;;;17.30;99.90;;;;;;5072224;28;20025;-82
2023/09/30 07:47:14;;;;;;;10.10;3.83;;;17.30;99.90;;;;;;5088115;28;20113;-83
2023/09/30 07:49:40;;;;;;;7.80;3.38;;;17.30;99.90;;;;;;5077601;28;20123;-85
2023/09/30 07:52:06;;;;;;;7.85;3.35;;;17.40;99.90;;;;;;5072695;28;20021;-90
2023/09/30 07:54:31;;;;;;;7.10;3.75;;;17.40;99.90;;;;;;5078627;28;20017;-88
2023/09/30 07:56:58;;;;;;;6.00;3.17;;;17.40;99.90;;;;;;5076795;28;20070;-87
2023/09/30 07:59:25;;;;;;;7.72;3.88;;;17.50;99.90;;;;;;5076721;28;20547;-82
2023/09/30 08:01:52;;;;;;;6.95;3.33;;;17.50;99.90;;;;;;5075338;28;20021;-85
2023/09/30 08:04:18;;;;;;;11.00;4.28;;;17.60;99.90;;;;;;5063221;28;20024;-84
2023/09/30 08:06:44;;;;;;;9.52;3.83;;;17.60;99.90;;;;;;5067445;28;20025;-83
2023/09/30 08:09:12;;;;;;;8.70;3.22;;;17.50;99.90;;;;;;5073764;28;20017;-88
2023/09/30 08:11:38;;;;;;;9.50;3.70;;;17.60;99.90;;;;;;5080504;28;20492;-84
2023/09/30 08:14:09;;;;;;;7.35;3.38;;;17.60;99.90;;;;;;5079103;28;20021;-87
2023/09/30 08:16:35;;;;;;;7.85;2.97;;;17.60;99.90;;;;;;5081052;28;20031;-86
2023/09/30 08:19:01;;;;;;;6.30;3.83;;;17.70;99.90;;;;;;5095552;28;20043;-87
2023/09/30 08:21:26;;;;;;;8.35;4.15;;;17.70;99.90;;;;;;5081413;28;20393;-85
2023/09/30 08:23:52;;;;;;;7.47;3.38;;;17.70;99.90;;;;;;5075524;28;20032;-85
2023/09/30 08:26:17;;;;;;;8.70;3.80;;;17.70;99.90;;;;;;5078684;28;20028;-84
2023/09/30 08:28:43;;;;;;;8.63;3.63;;;17.70;99.90;;;;;;5082965;28;20033;-84
2023/09/30 08:31:09;;;;;;;7.88;3.58;;;17.80;99.90;;;;;;5079623;28;20029;-83
2023/09/30 08:33:36;;;;;;;7.45;3.47;;;17.80;99.90;;;;;;5075512;28;20053;-85
2023/09/30 08:36:07;;;;;;;10.52;4.00;;;17.90;99.90;;;;;;5075034;28;20112;-86
2023/09/30 08:38:36;;;;;;;;;;;17.90;99.90;;;;;;5076918;28;20071;-84
2023/09/30 08:41:02;;;;;;;10.35;3.55;;;17.90;99.90;;;;;;5079005;28;20331;-82
2023/09/30 08:43:31;;;;;;;11.45;3.58;;;17.90;99.90;;;;;;5082774;28;20029;-83
2023/09/30 08:45:58;;;;;;;9.60;3.08;;;17.90;99.90;;;;;;5082613;28;20024;-84
2023/09/30 08:48:26;;;;;;;8.18;3.30;;;18.00;99.90;;;;;;5077474;28;20029;-89
2023/09/30 08:50:54;;;;;;;6.20;3.15;;;18.00;99.90;;;;;;5073789;28;20032;-83
2023/09/30 08:53:20;;;;;;;7.82;3.67;;;18.00;99.90;;;;;;5076425;28;20075;-83
2023/09/30 08:55:47;;;;;;;7.93;3.15;;;18.00;99.90;;;;;;5092354;28;20032;-84
2023/09/30 08:58:13;;;;;;;7.72;3.33;;;18.00;99.90;;;;;;5092556;28;20036;-81
2023/09/30 09:00:39;;;;;;;9.85;2.97;;;18.00;99.90;;;;;;5075088;28;20032;-82
2023/09/30 09:03:07;;;;;;;5.88;3.03;;;18.10;99.90;;;;;;5075141;28;20028;-83
2023/09/30 09:05:33;;;;;;;8.73;3.88;;;18.10;99.90;;;;;;5074759;28;20032;-82
2023/09/30 09:07:58;;;;;;;6.00;2.70;;;18.10;99.90;;;;;;5075271;28;20033;-83
2023/09/30 09:10:24;;;;;;;8.63;3.13;;;18.10;99.90;;;;;;5075397;28;20453;-83
2023/09/30 09:12:58;;;;;;;7.13;2.90;;;18.20;99.90;;;;;;5076066;28;20417;-83
2023/09/30 09:15:31;;;;;;;8.07;2.55;;;18.20;99.90;;;;;;5092017;28;20116;-83
2023/09/30 09:17:56;;;;;;;7.60;3.33;;;18.30;99.90;;;;;;5075711;28;20037;-83
2023/09/30 09:20:25;;;;;;;10.10;3.38;;;18.30;99.90;;;;;;5075961;28;20035;-81
2023/09/30 09:22:55;;;;;;;11.07;3.15;;;18.30;99.90;;;;;;5074542;28;20358;-81
2023/09/30 09:25:24;;;;;;;8.05;3.13;;;18.30;99.90;;;;;;5075930;28;20526;-82
2023/09/30 09:27:51;;;;;;;6.35;2.60;;;18.30;99.90;;;;;;5074669;28;20032;-82
2023/09/30 09:30:23;;;;;;;8.63;2.92;;;18.40;99.90;;;;;;5074860;28;20025;-81
2023/09/30 09:33:06;;;;;;;6.65;2.78;;;18.50;99.90;;;;;;5069515;28;20068;-83
2023/09/30 09:35:34;;;;;;;5.32;2.60;;;18.50;99.90;;;;;;5085478;28;20033;-85
2023/09/30 09:38:06;;;;;;;9.82;3.42;;;18.60;99.90;;;;;;5053679;28;20405;-87
2023/09/30 09:40:38;;;;;;;8.60;2.83;;;18.60;99.90;;;;;;5073198;28;20033;-85
2023/09/30 09:43:05;;;;;;;7.78;2.50;;;18.60;99.90;;;;;;5074786;28;20035;-86
2023/09/30 09:45:37;;;;;;;5.30;2.22;;;18.70;99.90;;;;;;5062635;28;20025;-86
2023/09/30 09:48:07;;;;;;;5.78;2.45;;;18.70;99.90;;;;;;5079570;28;20029;-84
2023/09/30 09:50:35;;;;;;;8.13;2.75;;;18.70;99.90;;;;;;5078402;28;20024;-84
2023/09/30 09:53:04;;;;;;;7.28;2.67;;;18.80;99.90;;;;;;5054339;28;20029;-84
2023/09/30 09:55:29;;;;;;;6.78;2.80;;;18.90;99.90;;;;;;5059501;28;20031;-83
2023/09/30 09:57:57;;;;;;;5.97;2.60;;;19.00;99.90;;;;;;5073650;28;20033;-84
2023/09/30 10:00:25;;;;;;;7.10;2.65;;;19.00;99.90;;;;;;5073732;28;20502;-84
2023/09/30 10:02:52;;;;;;;5.85;2.50;;;19.10;99.90;;;;;;5074891;28;20028;-83
2023/09/30 10:05:20;;;;;;;6.13;2.70;;;19.10;99.90;;;;;;5073645;28;20033;-82
2023/09/30 10:08:04;;;;;;;9.93;3.10;;;19.20;99.90;;;;;;5068485;28;20390;-82
2023/09/30 10:10:31;;;;;;;8.70;2.67;;;19.10;99.90;;;;;;5053915;28;20025;-82
2023/09/30 10:12:56;;;;;;;6.63;2.72;;;19.20;99.90;;;;;;5053033;28;20048;-84
2023/09/30 10:15:25;;;;;;;6.10;2.33;;;19.20;99.90;;;;;;5073195;28;20052;-82
2023/09/30 10:18:03;;;;;;;7.00;2.63;;;19.20;99.90;;;;;;5074140;28;20051;-84
2023/09/30 10:20:33;;;;;;;5.85;2.72;;;19.30;99.90;;;;;;5090841;28;20531;-85
2023/09/30 10:23:17;;;;;;;6.72;2.80;;;19.20;99.90;;;;;;5073741;28;20028;-86
2023/09/30 10:25:49;;;;;;;9.05;2.92;;;19.20;99.90;;;;;;5073883;28;20477;-85
2023/09/30 10:28:36;;;;;;;4.95;2.28;;;19.30;99.90;;;;;;5073454;28;20037;-83
2023/09/30 10:31:19;;;;;;;9.07;2.65;;;19.30;99.90;;;;;;5073482;28;20055;-85
2023/09/30 10:34:00;;;;;;;7.38;2.63;;;19.40;99.90;;;;;;5084052;28;20393;-84
2023/09/30 10:36:29;;;;;;;7.47;2.83;;;19.40;99.90;;;;;;5073664;28;20032;-84
2023/09/30 10:38:55;;;;;;;6.20;2.20;;;19.50;99.90;;;;;;5073108;28;20389;-83
2023/09/30 10:41:39;;;;;;;6.35;2.60;;;19.50;99.90;;;;;;5073661;28;20029;-86
2023/09/30 10:44:26;;;;;;;10.18;2.85;;;19.60;99.90;;;;;;5073172;28;20036;-86
2023/09/30 10:46:52;;;;;;;8.10;3.95;;;19.60;99.90;;;;;;5073666;28;20115;-83
2023/09/30 10:49:24;;;;;;;13.20;5.30;;;19.70;99.90;;;;;;5073401;28;20063;-86
2023/09/30 10:51:54;;;;;;;8.63;2.42;;;19.70;99.90;;;;;;5075208;28;20100;-86
2023/09/30 10:54:23;;;;;;;8.20;2.20;;;19.70;99.90;;;;;;5073942;28;20108;-88
2023/09/30 10:56:49;;;;;;;7.10;2.35;;;19.70;99.90;;;;;;5058360;28;20024;-86
2023/09/30 10:59:25;;;;;;;7.53;2.50;;;19.70;99.90;;;;;;5071375;28;20028;-85
2023/09/30 11:01:52;;;;;;;6.25;2.22;;;19.60;99.90;;;;;;5089738;28;20465;-85
2023/09/30 11:04:19;;;;;;;6.53;2.58;;;19.60;99.90;;;;;;5071709;28;20029;-86
2023/09/30 11:06:45;;;;;;;6.85;2.80;;;19.70;99.90;;;;;;5089968;28;20029;-84
2023/09/30 11:09:19;;;;;;;5.68;2.03;;;19.70;99.90;;;;;;5072535;28;20029;-84
2023/09/30 11:11:50;;;;;;;8.48;2.33;;;19.60;99.90;;;;;;5073342;28;20080;-85
2023/09/30 11:14:26;;;;;;;6.53;2.28;;;19.70;99.90;;;;;;5072356;28;20021;-84
2023/09/30 11:16:53;;;;;;;6.30;2.40;;;19.70;99.90;;;;;;5074180;28;20024;-83
2023/09/30 11:19:20;;;;;;;3.58;2.10;;;19.80;99.90;;;;;;5075052;28;20021;-84
2023/09/30 11:21:54;;;;;;;8.02;2.53;;;19.80;99.90;;;;;;5075144;28;20028;-85
2023/09/30 11:24:21;;;;;;;7.05;2.53;;;20.00;99.90;;;;;;5073783;28;20024;-86
2023/09/30 11:26:47;;;;;;;5.68;2.35;;;20.10;99.90;;;;;;5073923;28;20586;-88
2023/09/30 11:29:15;;;;;;;6.57;2.00;;;20.10;99.90;;;;;;5073627;28;20123;-88
2023/09/30 11:31:46;;;;;;;9.93;2.60;;;20.20;99.90;;;;;;5081782;28;20024;-88
2023/09/30 11:34:12;;;;;;;7.07;2.75;;;20.20;99.90;;;;;;5073925;28;20044;-87
2023/09/30 11:36:43;;;;;;;7.60;3.05;;;20.30;99.90;;;;;;5073250;28;20048;-87
2023/09/30 11:39:09;;;;;;;6.10;2.63;;;20.40;99.90;;;;;;5072125;28;20459;-82
2023/09/30 11:41:41;;;;;;;7.25;2.20;;;20.40;99.90;;;;;;5073490;28;20059;-82
2023/09/30 11:44:12;;;;;;;5.15;2.28;;;20.50;99.90;;;;;;5073314;28;20137;-82
2023/09/30 11:47:00;;;;;;;5.55;2.25;;;20.60;99.90;;;;;;5072083;28;20025;-83
2023/09/30 11:49:40;;;;;;;6.43;2.03;;;20.80;99.90;;;;;;5072983;28;20032;-83
2023/09/30 11:52:09;;;;;;;7.57;2.60;;;20.90;99.90;;;;;;5072488;28;20029;-83
2023/09/30 11:54:39;;;;;;;7.03;2.25;;;20.90;99.90;;;;;;5073958;28;20081;-89
2023/09/30 11:57:05;;;;;;;4.70;2.00;;;21.00;99.90;;;;;;5075022;28;20025;-87
2023/09/30 11:59:31;;;;;;;7.65;2.53;;;21.00;99.90;;;;;;5074917;28;20061;-87
2023/09/30 12:01:58;;;;;;;7.75;2.60;;;21.00;99.90;;;;;;5072372;28;20031;-84
2023/09/30 12:04:24;;;;;;;6.80;2.80;;;21.20;99.90;;;;;;5072545;28;20169;-88
2023/09/30 12:06:50;;;;;;;6.57;2.50;;;21.30;99.70;;;;;;5073378;28;20066;-89
2023/09/30 12:09:21;;;;;;;6.45;2.20;;;21.40;98.70;;;;;;5070902;28;20094;-85
2023/09/30 12:11:48;;;;;;;5.05;1.95;;;21.50;99.00;;;;;;5059817;28;20036;-85
2023/09/30 12:14:14;;;;;;;5.03;2.10;;;21.70;98.00;;;;;;5071704;28;20082;-82
2023/09/30 12:16:41;;;;;;;4.53;2.15;;;21.80;98.30;;;;;;5071997;28;20056;-81
2023/09/30 12:19:08;;;;;;;5.45;2.15;;;21.90;98.10;;;;;;5071172;28;20040;-80
2023/09/30 12:21:34;;;;;;;7.93;2.20;;;22.10;97.50;;;;;;5072359;28;20070;-79
2023/09/30 12:24:02;;;;;;;5.57;2.15;;;22.10;96.30;;;;;;5071148;28;20469;-80
2023/09/30 12:26:28;;;;;;;6.00;2.58;;;22.30;96.70;;;;;;5071565;28;20020;-79
2023/09/30 12:28:55;;;;;;;6.53;2.35;;;22.50;95.30;;;;;;5071234;28;20028;-79
2023/09/30 12:31:21;;;;;;;6.90;2.38;;;22.70;95.70;;;;;;5071188;28;20077;-79
2023/09/30 12:33:50;;;;;;;5.95;1.98;;;22.80;95.30;;;;;;5071202;28;20059;-79
2023/09/30 12:36:16;;;;;;;5.57;2.10;;;22.80;94.00;;;;;;5074435;28;20277;-84
2023/09/30 12:38:42;;;;;;;7.18;2.45;;;22.80;93.70;;;;;;5075737;28;20090;-84
2023/09/30 12:41:08;;;;;;;9.23;2.53;;;23.00;93.50;;;;;;5075127;28;20119;-84
2023/09/30 12:43:33;;;;;;;8.30;2.38;;;23.20;94.00;;;;;;5076825;28;20060;-84
2023/09/30 12:45:59;;;;;;;6.32;2.55;;;23.40;93.80;;;;;;5093207;28;20181;-83